Terminal Aerodrome Forecast
Issued by NWS

Home | Current Version | Previous Version | Text Only | Print | Product List | Glossary On
Versions: 1 2 3 4 5 6 7 8 9 10 11 12 13 14 15 16 17 18 19 20
341
FTUS43 KABR 281433 AAA
TAFATY
TAF AMD
KATY 281433Z 2815/2912 03014KT P6SM FEW250
     FM281600 02014G20KT P6SM SCT250
     FM290200 03007KT P6SM SKC=

USA.gov is the U.S. government's official web portal to all federal, state and local government web resources and services.